Airfield :
LOGIN :

Register | Disclaimer

   EN    FR    IT 

 










Legend :    VFR   Marginal VFR   IFR   Intensive IFR   Very Intensive IFR
Visi :
Ceiling :
>= 8 km
>= 3000ft
5 to 8 km
1000 to 3000 ft
1500m to 5 km
500 to 1000 ft
800 to 1500m
200 to 500 ft
< 800m
< 200 ft
Symbols :   Thunderstorms  Fog  Heavy snow  Heavy precipitations  Wind > 20 kt
SIGMETs :     Misc.  Thunderstorms  Icing  Turbulence  Mountain Waves  Volcanic Ashes






- Airport Elevation : 788 ft
- IATA code : DCM


LFCK - Castres-Mazamet

CURRENT METAR :
  • 220130Z AUTO 27005KT 9999 FEW004 BKN020 BKN026 15/15 Q1014

EXPIRED METARs :
  • 220100Z AUTO 29004KT 9999 OVC018 15/15 Q1014
  • 220030Z AUTO 00000KT 9999 BKN014 OVC020 15/14 Q1014
  • 220000Z AUTO 28002KT 9999 OVC013 15/15 Q1014
  • 212330Z AUTO 00000KT 9999 BKN015 BKN020 15/14 Q1014
  • 212300Z AUTO 24004KT 9999 BKN012/// OVC018/// ///TCU 15/15 Q1014

TAF TAF LFCK
Valid from the 21 at 18:00 until the 22 at 03:00 UTC


211700Z 2118/2203 29010KT CAVOK
TEMPO 2118/2123 4000 SHRA SCT025CB
PROB30
TEMPO 2118/2122 VRB25G37KT 2000 TSRA BKN020CB



MET'MAP, your aeronautical weather chart ! - Copyright ORBIFLY December 2007 - Disclaimer

ORBIFLY MET'MAP TEAM :

Programming & Development : Alexandra Zaïnal
Concept & original design : Baudouin d'Aumeries
Assistance for programming : Marc-Olivier Méhu
Technical & hardware support : Manuel Goepfert

Contact : metmap@orbifly.com




SOURCES & CREDITS :

   NOAA